Time;durP1;ratioP1;P1;durP2;ratioP2;P2;SDS_P1;SDS_P2;PMS_P1;PMS_P2;Temp;Humidity;BMP_temperature;BMP_pressure;BME280_temperature;BME280_humidity;BME280_pressure;Samples;Min_cycle;Max_cycle;Signal;HPM_P1;HPM_P2
2022/12/29 00:00:04;;;;;;;1.67;0.93;;;19.20;59.40;;;;;;4929597;29;20214;-70
2022/12/29 00:02:38;;;;;;;0.90;0.90;;;19.20;59.40;;;;;;4936859;28;20199;-70
2022/12/29 00:05:05;;;;;;;1.48;1.17;;;19.20;59.40;;;;;;4942033;29;20211;-70
2022/12/29 00:07:30;;;;;;;0.98;0.90;;;19.20;59.40;;;;;;4918080;28;20179;-70
2022/12/29 00:09:56;;;;;;;2.05;1.08;;;19.20;59.40;;;;;;4938308;28;20325;-70
2022/12/29 00:12:22;;;;;;;0.90;0.90;;;19.20;59.40;;;;;;4982780;28;20203;-70
2022/12/29 00:17:32;;;;;;;1.67;1.00;;;19.20;59.40;;;;;;4969227;28;20523;-70
2022/12/29 00:36:38;;;;;;;1.13;1.02;;;19.20;59.30;;;;;;4941361;29;20237;-70
2022/12/29 00:44:41;;;;;;;0.75;0.75;;;19.20;59.30;;;;;;4979006;28;20207;-70
2022/12/29 00:47:09;;;;;;;1.30;1.20;;;19.20;59.30;;;;;;4936859;29;20187;-70
2022/12/29 00:49:34;;;;;;;1.00;0.90;;;19.20;59.20;;;;;;4944882;28;20198;-70
2022/12/29 00:52:09;;;;;;;1.45;1.02;;;19.20;59.20;;;;;;4933423;28;20188;-71
2022/12/29 00:54:40;;;;;;;1.10;1.00;;;19.20;59.20;;;;;;4968280;28;20214;-70
2022/12/29 00:57:09;;;;;;;1.67;1.00;;;19.20;59.20;;;;;;4917287;29;20192;-70
2022/12/29 00:59:36;;;;;;;1.33;0.98;;;19.20;59.30;;;;;;4916993;29;20200;-70
2022/12/29 01:02:03;;;;;;;1.85;1.10;;;19.20;59.20;;;;;;4932854;29;20195;-70
2022/12/29 01:04:29;;;;;;;0.80;0.80;;;19.20;59.30;;;;;;4984369;28;20222;-70
2022/12/29 01:06:54;;;;;;;1.00;0.90;;;19.20;59.20;;;;;;4917096;28;20203;-70
2022/12/29 01:12:07;;;;;;;1.60;1.00;;;19.20;59.20;;;;;;4932905;29;20199;-71
2022/12/29 01:14:33;;;;;;;1.00;1.00;;;19.20;59.20;;;;;;4933313;28;20223;-70
2022/12/29 01:16:59;;;;;;;1.15;0.90;;;19.20;59.20;;;;;;4950543;28;20672;-70
2022/12/29 01:19:25;;;;;;;1.08;0.98;;;19.20;59.30;;;;;;4951630;28;20194;-70
2022/12/29 01:21:51;;;;;;;1.38;1.00;;;19.20;59.20;;;;;;5018179;28;20194;-70
2022/12/29 01:24:20;;;;;;;1.33;1.20;;;19.20;59.20;;;;;;4945711;28;20209;-70
2022/12/29 01:26:47;;;;;;;1.17;1.08;;;19.20;59.20;;;;;;4943866;28;20237;-70
2022/12/29 01:29:13;;;;;;;1.20;1.02;;;19.20;59.20;;;;;;4959689;28;20191;-70
2022/12/29 01:31:39;;;;;;;1.33;1.10;;;19.20;59.20;;;;;;4952218;28;20198;-70
2022/12/29 01:34:05;;;;;;;1.10;1.00;;;19.20;59.20;;;;;;4924742;28;20215;-70
2022/12/29 01:36:32;;;;;;;1.10;0.90;;;19.20;59.20;;;;;;4981218;28;20198;-70
2022/12/29 01:38:58;;;;;;;0.65;0.65;;;19.20;59.20;;;;;;4961339;28;20237;-70
2022/12/29 01:41:25;;;;;;;1.15;1.00;;;19.20;59.20;;;;;;4950772;28;20218;-70
2022/12/29 01:43:57;;;;;;;0.80;0.77;;;19.20;59.20;;;;;;4934267;28;20223;-69
2022/12/29 01:46:43;;;;;;;1.20;1.10;;;19.20;59.20;;;;;;4916752;29;20222;-70
2022/12/29 01:49:18;;;;;;;2.42;1.13;;;19.20;59.10;;;;;;4924760;28;20195;-70
2022/12/29 01:52:07;;;;;;;1.98;1.00;;;19.20;59.20;;;;;;4932742;28;20273;-71
2022/12/29 01:54:47;;;;;;;1.10;1.00;;;19.20;59.20;;;;;;4927636;28;20229;-70
2022/12/29 01:57:21;;;;;;;1.08;0.98;;;19.20;59.10;;;;;;4920985;28;20208;-70
2022/12/29 01:59:59;;;;;;;3.17;1.08;;;19.20;59.70;;;;;;4930343;28;20265;-70
2022/12/29 02:02:25;;;;;;;0.88;0.88;;;19.20;59.10;;;;;;4945264;28;20183;-70
2022/12/29 02:04:55;;;;;;;0.82;0.80;;;19.20;59.10;;;;;;4916261;28;20306;-70
2022/12/29 02:07:26;;;;;;;0.95;0.95;;;19.20;59.10;;;;;;4921785;29;20182;-70
2022/12/29 02:09:55;;;;;;;1.25;0.80;;;19.20;59.10;;;;;;4949900;28;20205;-70
2022/12/29 02:12:23;;;;;;;1.17;0.90;;;19.20;59.10;;;;;;4929336;28;20190;-70
2022/12/29 02:14:55;;;;;;;1.95;1.00;;;19.20;59.10;;;;;;4950194;28;20280;-71
2022/12/29 02:17:59;;;;;;;1.25;0.90;;;19.20;59.10;;;;;;5019142;28;20214;-70
2022/12/29 02:20:58;;;;;;;0.85;0.80;;;19.20;59.10;;;;;;4945641;28;20229;-70
2022/12/29 02:23:56;;;;;;;0.93;0.70;;;19.20;59.10;;;;;;4921729;28;20197;-70
2022/12/29 02:26:59;;;;;;;0.93;0.80;;;19.20;59.10;;;;;;4915997;29;20191;-70
2022/12/29 02:30:02;;;;;;;0.73;0.60;;;19.20;59.10;;;;;;4945106;28;20194;-70
2022/12/29 02:32:52;;;;;;;1.27;0.85;;;19.20;59.10;;;;;;4937795;28;20271;-70
2022/12/29 02:35:34;;;;;;;0.90;0.90;;;19.20;59.00;;;;;;4916153;29;20214;-70
2022/12/29 02:38:23;;;;;;;0.80;0.80;;;19.20;59.10;;;;;;4917787;28;20191;-70
2022/12/29 02:41:05;;;;;;;1.45;0.88;;;19.20;59.10;;;;;;4966854;28;20230;-70
2022/12/29 02:44:21;;;;;;;1.40;1.05;;;19.20;59.10;;;;;;5010428;28;20765;-70
2022/12/29 02:47:00;;;;;;;0.75;0.75;;;19.20;59.10;;;;;;4946605;28;20195;-70
2022/12/29 02:49:57;;;;;;;1.00;0.98;;;19.20;59.00;;;;;;4991073;28;20191;-70
2022/12/29 02:52:33;;;;;;;0.82;0.82;;;19.20;59.10;;;;;;4941541;29;20761;-70
2022/12/29 02:54:59;;;;;;;1.27;0.90;;;19.20;59.10;;;;;;4917380;28;20241;-70
2022/12/29 02:57:26;;;;;;;0.95;0.90;;;19.20;59.00;;;;;;4943083;28;20559;-69
2022/12/29 03:00:07;;;;;;;1.02;0.93;;;19.20;59.10;;;;;;4917493;28;20227;-70
2022/12/29 03:03:03;;;;;;;1.00;0.90;;;19.20;59.00;;;;;;4923386;29;20214;-70
2022/12/29 03:06:13;;;;;;;0.80;0.80;;;19.20;59.00;;;;;;4978028;28;20214;-69
2022/12/29 03:09:00;;;;;;;0.90;0.90;;;19.20;59.00;;;;;;4915419;29;20253;-70
2022/12/29 03:17:35;;;;;;;1.40;0.95;;;19.20;59.00;;;;;;4936338;29;20191;-70
2022/12/29 03:20:23;;;;;;;1.75;1.13;;;19.20;59.00;;;;;;4942030;28;20213;-70
2022/12/29 03:23:00;;;;;;;0.82;0.82;;;19.20;59.00;;;;;;4933736;29;20282;-70
2022/12/29 03:25:35;;;;;;;1.25;0.82;;;19.20;59.00;;;;;;4930916;28;20689;-70
2022/12/29 03:28:12;;;;;;;0.80;0.80;;;19.20;59.00;;;;;;4938850;28;20201;-70
2022/12/29 03:30:45;;;;;;;0.77;0.70;;;19.20;59.00;;;;;;4923694;28;20206;-70
2022/12/29 03:33:20;;;;;;;1.33;1.10;;;19.20;59.00;;;;;;4923084;28;20317;-70
2022/12/29 03:35:52;;;;;;;1.13;0.80;;;19.20;59.00;;;;;;4938645;28;20194;-69
2022/12/29 03:38:28;;;;;;;0.90;0.90;;;19.20;59.00;;;;;;4958069;28;20228;-69
2022/12/29 03:40:59;;;;;;;0.85;0.82;;;19.20;59.00;;;;;;4944699;28;20218;-70
2022/12/29 03:43:28;;;;;;;0.60;0.60;;;19.20;59.00;;;;;;4928247;28;20194;-70
2022/12/29 03:45:54;;;;;;;1.00;0.90;;;19.20;59.00;;;;;;4949808;28;20191;-70
2022/12/29 03:48:20;;;;;;;0.93;0.80;;;19.20;59.00;;;;;;4930630;29;20194;-70
2022/12/29 03:50:48;;;;;;;1.60;1.00;;;19.20;59.00;;;;;;4923278;28;20193;-71
2022/12/29 03:53:14;;;;;;;1.13;1.10;;;19.20;59.00;;;;;;4931038;29;20191;-70
2022/12/29 03:55:41;;;;;;;1.25;0.90;;;19.20;59.00;;;;;;4929844;28;20198;-70
2022/12/29 03:58:07;;;;;;;1.00;1.00;;;19.20;58.90;;;;;;4915987;28;20191;-70
2022/12/29 04:00:51;;;;;;;1.02;0.98;;;19.20;58.90;;;;;;4930241;29;20226;-70
2022/12/29 04:03:17;;;;;;;0.77;0.77;;;19.20;58.90;;;;;;4934656;29;20337;-70
2022/12/29 04:05:44;;;;;;;1.23;0.70;;;19.20;59.00;;;;;;4933754;28;20249;-70
2022/12/29 04:08:10;;;;;;;0.85;0.85;;;19.20;58.90;;;;;;4931960;28;20192;-70
2022/12/29 04:10:35;;;;;;;1.77;0.70;;;19.20;58.90;;;;;;4914569;28;20203;-70
2022/12/29 04:13:04;;;;;;;3.25;1.02;;;19.20;58.90;;;;;;4940132;28;20187;-70
2022/12/29 04:15:30;;;;;;;0.90;0.80;;;19.20;58.80;;;;;;5033587;23;20226;-68
2022/12/29 04:17:56;;;;;;;0.80;0.80;;;19.20;58.90;;;;;;5040846;28;20214;-66
2022/12/29 04:23:07;;;;;;;0.88;0.80;;;19.20;58.90;;;;;;5046842;28;20190;-68
2022/12/29 04:25:35;;;;;;;1.17;1.08;;;19.20;58.90;;;;;;5029495;28;20208;-68
2022/12/29 04:28:02;;;;;;;0.73;0.73;;;19.20;58.90;;;;;;5013474;28;20223;-65
2022/12/29 04:31:00;;;;;;;0.93;0.93;;;19.20;58.90;;;;;;5021345;28;20206;-68
2022/12/29 04:33:34;;;;;;;1.00;0.90;;;19.20;58.90;;;;;;5014869;28;20278;-68
2022/12/29 04:36:00;;;;;;;1.10;1.00;;;19.20;58.90;;;;;;5030591;28;20195;-68
2022/12/29 04:38:27;;;;;;;1.20;1.10;;;19.20;58.90;;;;;;5017019;28;20255;-67
2022/12/29 04:40:53;;;;;;;0.90;0.90;;;19.20;58.80;;;;;;5006097;28;20610;-68
2022/12/29 04:43:22;;;;;;;1.25;0.95;;;19.20;58.90;;;;;;5026464;28;20187;-68
2022/12/29 04:46:05;;;;;;;0.90;0.90;;;19.20;58.80;;;;;;5017157;28;20191;-68
2022/12/29 04:48:38;;;;;;;0.73;0.73;;;19.20;58.90;;;;;;5017972;28;20200;-68
2022/12/29 04:51:23;;;;;;;0.70;0.70;;;19.20;58.80;;;;;;5050102;28;20183;-68
2022/12/29 04:53:49;;;;;;;1.13;0.90;;;19.20;58.80;;;;;;5033551;28;20214;-68
2022/12/29 04:56:15;;;;;;;1.00;1.00;;;19.20;58.90;;;;;;5025331;28;20187;-68
2022/12/29 04:58:42;;;;;;;1.33;0.88;;;19.20;58.80;;;;;;5018471;28;20195;-68
2022/12/29 05:01:08;;;;;;;1.42;0.85;;;19.20;58.90;;;;;;5013525;28;20215;-68
2022/12/29 05:03:34;;;;;;;0.90;0.80;;;19.20;58.80;;;;;;5011401;28;20183;-68
2022/12/29 05:05:59;;;;;;;0.88;0.88;;;19.20;58.80;;;;;;5048933;28;20192;-66
2022/12/29 05:08:26;;;;;;;1.10;0.93;;;19.20;58.80;;;;;;5013645;28;20195;-67
2022/12/29 05:10:52;;;;;;;1.00;0.90;;;19.20;58.80;;;;;;5013530;28;20199;-69
2022/12/29 05:13:20;;;;;;;0.70;0.70;;;19.20;58.80;;;;;;5022631;28;20210;-68
2022/12/29 05:15:52;;;;;;;1.20;0.98;;;19.20;58.80;;;;;;5025711;28;20215;-68
2022/12/29 05:18:18;;;;;;;1.20;1.10;;;19.20;58.80;;;;;;5041738;28;20275;-68
2022/12/29 05:20:45;;;;;;;1.25;0.90;;;19.20;58.80;;;;;;5032967;28;20237;-66
2022/12/29 05:23:11;;;;;;;1.50;0.88;;;19.20;58.80;;;;;;5014335;28;20192;-68
2022/12/29 05:25:37;;;;;;;0.93;0.88;;;19.20;58.80;;;;;;5027507;28;20207;-68
2022/12/29 05:28:18;;;;;;;1.10;0.85;;;19.20;58.80;;;;;;5010547;28;20183;-68
2022/12/29 05:30:51;;;;;;;1.10;1.00;;;19.20;58.80;;;;;;5045770;28;20187;-68
2022/12/29 05:33:19;;;;;;;1.13;1.00;;;19.20;58.80;;;;;;5049454;28;20210;-69
2022/12/29 05:35:46;;;;;;;0.85;0.80;;;19.20;58.80;;;;;;5049516;28;20295;-69
2022/12/29 05:38:13;;;;;;;0.80;0.80;;;19.20;58.80;;;;;;5007939;28;20204;-68
2022/12/29 05:40:39;;;;;;;1.70;0.90;;;19.20;58.80;;;;;;5029172;28;20627;-66
2022/12/29 05:43:15;;;;;;;1.13;0.80;;;19.20;58.80;;;;;;5008727;28;20179;-68
2022/12/29 05:46:08;;;;;;;1.20;0.90;;;19.20;58.80;;;;;;5026306;28;20198;-68
2022/12/29 05:48:46;;;;;;;0.90;0.77;;;19.20;58.80;;;;;;5027256;28;20187;-68
2022/12/29 05:51:34;;;;;;;1.13;0.90;;;19.20;58.80;;;;;;5024341;28;20206;-68
2022/12/29 05:54:00;;;;;;;0.88;0.88;;;19.20;58.80;;;;;;5029371;28;20223;-66
2022/12/29 05:56:26;;;;;;;0.60;0.60;;;19.20;58.80;;;;;;5001028;28;20201;-67
2022/12/29 05:58:56;;;;;;;1.48;0.90;;;19.20;58.80;;;;;;5024434;28;20196;-67
2022/12/29 06:01:22;;;;;;;1.55;0.82;;;19.20;58.80;;;;;;5024839;28;20207;-68
2022/12/29 06:03:48;;;;;;;0.93;0.80;;;19.20;58.80;;;;;;5025163;28;20211;-68
2022/12/29 06:06:15;;;;;;;0.70;0.70;;;19.20;58.80;;;;;;5006832;28;20231;-66
2022/12/29 06:08:42;;;;;;;0.70;0.70;;;19.20;58.80;;;;;;5048601;28;20184;-68
2022/12/29 06:11:10;;;;;;;0.80;0.80;;;19.20;58.80;;;;;;5014382;28;20200;-67
2022/12/29 06:13:35;;;;;;;1.15;1.13;;;19.20;58.80;;;;;;5001631;28;20198;-67
2022/12/29 06:16:01;;;;;;;2.00;0.80;;;19.20;58.80;;;;;;5040445;28;20195;-69
2022/12/29 06:18:28;;;;;;;1.20;0.90;;;19.20;58.80;;;;;;5043976;28;20680;-68
2022/12/29 06:21:04;;;;;;;1.63;1.23;;;19.20;59.40;;;;;;5044768;28;20726;-67
2022/12/29 06:23:30;;;;;;;1.13;0.90;;;19.20;58.80;;;;;;5019327;28;20184;-67
2022/12/29 06:25:57;;;;;;;0.85;0.82;;;19.20;58.80;;;;;;5028451;28;20195;-68
2022/12/29 06:28:23;;;;;;;1.10;0.95;;;19.20;58.80;;;;;;5028755;28;20180;-66
2022/12/29 06:30:49;;;;;;;0.80;0.80;;;19.20;58.80;;;;;;5040878;28;20274;-67
2022/12/29 06:33:17;;;;;;;0.80;0.80;;;19.20;58.80;;;;;;5045860;28;20203;-67
2022/12/29 06:35:43;;;;;;;1.65;1.17;;;19.20;58.80;;;;;;5034791;28;20265;-68
2022/12/29 06:38:09;;;;;;;0.73;0.73;;;19.20;58.80;;;;;;5029891;28;20227;-68
2022/12/29 06:40:35;;;;;;;0.98;0.88;;;19.20;58.80;;;;;;5037968;28;20321;-68
2022/12/29 06:43:01;;;;;;;0.80;0.80;;;19.20;58.80;;;;;;5031770;28;20196;-68
2022/12/29 06:46:02;;;;;;;1.48;1.00;;;19.20;58.80;;;;;;4962787;28;20232;-66
2022/12/29 06:48:27;;;;;;;1.17;0.80;;;19.20;58.80;;;;;;5030332;28;20203;-68
2022/12/29 06:50:53;;;;;;;1.33;1.15;;;19.20;58.80;;;;;;5035557;28;20202;-68
2022/12/29 06:53:19;;;;;;;1.17;0.90;;;19.20;58.80;;;;;;5012042;28;20184;-68
2022/12/29 06:55:44;;;;;;;1.83;0.82;;;19.20;58.80;;;;;;4995148;28;20687;-68
2022/12/29 06:58:10;;;;;;;0.93;0.85;;;19.20;58.80;;;;;;5046203;28;20195;-68
2022/12/29 07:00:36;;;;;;;0.88;0.80;;;19.20;58.80;;;;;;5028503;28;20248;-68
2022/12/29 07:03:02;;;;;;;0.90;0.80;;;19.20;58.80;;;;;;5028487;28;20269;-67
2022/12/29 07:05:28;;;;;;;0.80;0.77;;;19.20;58.80;;;;;;5022386;28;20203;-68
2022/12/29 07:07:55;;;;;;;0.75;0.75;;;19.20;58.80;;;;;;4999389;28;20200;-68
2022/12/29 07:10:21;;;;;;;0.93;0.90;;;19.20;58.80;;;;;;5011254;28;20203;-67
2022/12/29 07:12:47;;;;;;;1.10;1.00;;;19.20;58.80;;;;;;5019567;28;20220;-68
2022/12/29 07:15:12;;;;;;;0.80;0.73;;;19.20;58.80;;;;;;5004877;28;20233;-68
2022/12/29 07:17:38;;;;;;;1.27;0.90;;;19.20;58.80;;;;;;5026953;28;20240;-68
2022/12/29 07:20:05;;;;;;;1.58;0.82;;;19.20;58.80;;;;;;5036536;28;20210;-68
2022/12/29 07:22:31;;;;;;;1.00;1.00;;;19.20;58.80;;;;;;5018932;28;20234;-68
2022/12/29 07:24:57;;;;;;;1.20;1.05;;;19.20;58.80;;;;;;5027301;28;20214;-67
2022/12/29 07:27:23;;;;;;;0.95;0.82;;;19.20;58.80;;;;;;5031164;28;20230;-68
2022/12/29 07:29:48;;;;;;;0.70;0.63;;;19.20;58.80;;;;;;5027588;28;20569;-68
2022/12/29 07:32:14;;;;;;;0.98;0.98;;;19.20;58.80;;;;;;5029246;28;20191;-67
2022/12/29 07:34:40;;;;;;;1.20;0.95;;;19.20;58.80;;;;;;5021404;28;20207;-67
2022/12/29 07:37:06;;;;;;;0.70;0.70;;;19.20;58.80;;;;;;5036754;28;20214;-67
2022/12/29 07:39:32;;;;;;;1.65;0.80;;;19.20;58.80;;;;;;5021502;28;20270;-67
2022/12/29 07:41:57;;;;;;;1.35;1.00;;;19.20;58.80;;;;;;5031186;28;20616;-67
2022/12/29 07:44:25;;;;;;;1.00;0.80;;;19.20;58.80;;;;;;5010638;28;20227;-68
2022/12/29 07:47:09;;;;;;;0.95;0.93;;;19.20;58.80;;;;;;5013474;28;20310;-67
2022/12/29 07:49:35;;;;;;;2.83;1.00;;;19.20;58.80;;;;;;5022523;28;20282;-67
2022/12/29 07:52:01;;;;;;;0.73;0.73;;;19.20;58.80;;;;;;5030739;28;20195;-68
2022/12/29 07:54:27;;;;;;;0.77;0.77;;;19.20;58.80;;;;;;5005997;28;20209;-68
2022/12/29 07:56:52;;;;;;;2.05;0.98;;;19.20;58.80;;;;;;5030681;28;20191;-68
2022/12/29 07:59:18;;;;;;;1.42;0.90;;;19.20;58.80;;;;;;5036507;28;20207;-68
2022/12/29 08:01:44;;;;;;;0.70;0.70;;;19.20;58.80;;;;;;5011056;28;20215;-68
2022/12/29 08:04:10;;;;;;;1.33;1.20;;;19.20;58.80;;;;;;5002599;28;20235;-68
2022/12/29 08:06:37;;;;;;;0.90;0.90;;;19.20;58.80;;;;;;5036700;28;20199;-68
2022/12/29 08:09:03;;;;;;;1.10;1.00;;;19.20;58.80;;;;;;5026981;28;20191;-67
2022/12/29 08:11:29;;;;;;;1.30;1.05;;;19.20;58.80;;;;;;5022765;28;20191;-68
2022/12/29 08:13:55;;;;;;;1.92;0.98;;;19.20;58.80;;;;;;5033074;28;20578;-68
2022/12/29 08:16:20;;;;;;;1.08;0.98;;;19.20;58.80;;;;;;5048297;28;20191;-68
2022/12/29 08:18:46;;;;;;;0.80;0.80;;;19.20;58.80;;;;;;5014358;28;20192;-68
2022/12/29 08:21:12;;;;;;;0.70;0.70;;;19.20;58.80;;;;;;5015774;28;20207;-68
2022/12/29 08:23:38;;;;;;;0.95;0.80;;;19.20;58.80;;;;;;5042475;28;20194;-68
2022/12/29 08:26:05;;;;;;;1.00;0.90;;;19.20;58.80;;;;;;5017879;28;20190;-67
2022/12/29 08:28:32;;;;;;;1.02;0.90;;;19.20;58.80;;;;;;5015337;28;20191;-68
2022/12/29 08:31:01;;;;;;;2.67;0.93;;;19.20;58.70;;;;;;5022051;28;20203;-66
2022/12/29 08:33:28;;;;;;;0.80;0.80;;;19.20;58.80;;;;;;5033974;28;20203;-68
2022/12/29 08:36:01;;;;;;;1.33;0.90;;;19.20;58.70;;;;;;5027309;28;20192;-68
2022/12/29 08:38:28;;;;;;;1.20;1.00;;;19.20;58.80;;;;;;4997990;28;20180;-67
2022/12/29 08:40:55;;;;;;;0.73;0.73;;;19.20;58.80;;;;;;5029428;28;20212;-68
2022/12/29 08:43:21;;;;;;;0.85;0.70;;;19.20;58.70;;;;;;5009040;28;20667;-68
2022/12/29 08:45:47;;;;;;;1.05;0.90;;;19.20;58.80;;;;;;5025181;28;20252;-69
2022/12/29 08:48:13;;;;;;;2.53;1.08;;;19.20;58.80;;;;;;4999766;28;20192;-68
2022/12/29 08:50:38;;;;;;;1.35;0.98;;;19.20;58.80;;;;;;5018498;28;20203;-66
2022/12/29 08:53:04;;;;;;;1.55;1.00;;;19.20;58.70;;;;;;5029329;28;20231;-68
2022/12/29 08:55:30;;;;;;;1.40;0.90;;;19.20;58.80;;;;;;5033558;28;20237;-68
2022/12/29 08:57:56;;;;;;;1.58;0.98;;;19.20;58.80;;;;;;5034843;28;20184;-67
2022/12/29 09:00:23;;;;;;;1.60;0.90;;;19.20;58.80;;;;;;5032324;28;20235;-68
2022/12/29 09:02:51;;;;;;;1.00;1.00;;;19.30;58.90;;;;;;5014104;28;20184;-68
2022/12/29 09:05:17;;;;;;;1.15;0.98;;;19.20;58.80;;;;;;4999796;28;20220;-68
2022/12/29 09:07:42;;;;;;;1.58;0.98;;;19.30;58.90;;;;;;5021317;28;20191;-67
2022/12/29 09:10:08;;;;;;;1.23;0.85;;;19.20;58.80;;;;;;5030194;28;20195;-67
2022/12/29 09:12:34;;;;;;;1.13;1.00;;;19.20;58.80;;;;;;5020039;28;20192;-67
2022/12/29 09:15:00;;;;;;;2.67;0.90;;;19.20;58.80;;;;;;5004344;28;20219;-68
2022/12/29 09:17:42;;;;;;;1.35;0.95;;;19.20;59.40;;;;;;5027918;28;20665;-68
2022/12/29 09:20:09;;;;;;;2.20;1.13;;;19.30;58.90;;;;;;5029674;28;20628;-67
2022/12/29 09:22:36;;;;;;;0.90;0.90;;;19.30;58.90;;;;;;5007959;28;20187;-68
2022/12/29 09:25:02;;;;;;;1.25;0.90;;;19.20;58.80;;;;;;5029347;28;20200;-68
2022/12/29 09:27:28;;;;;;;1.10;1.00;;;19.20;58.90;;;;;;5016869;28;20198;-67
2022/12/29 09:29:53;;;;;;;1.02;0.90;;;19.20;58.80;;;;;;5035342;28;20192;-68
2022/12/29 09:32:19;;;;;;;0.98;0.88;;;19.20;58.90;;;;;;5031123;28;20190;-68
2022/12/29 09:34:45;;;;;;;2.03;0.98;;;19.20;58.90;;;;;;5037657;28;20346;-68
2022/12/29 09:37:11;;;;;;;1.30;1.00;;;19.30;59.00;;;;;;5029353;28;20187;-67
2022/12/29 09:39:36;;;;;;;1.52;0.95;;;19.30;58.90;;;;;;5021067;28;20195;-67
2022/12/29 09:42:22;;;;;;;1.10;1.00;;;19.30;59.00;;;;;;5004905;28;20219;-67
2022/12/29 09:45:14;;;;;;;1.10;1.00;;;19.30;59.00;;;;;;5021918;28;20227;-68
2022/12/29 09:47:45;;;;;;;1.50;0.95;;;19.30;58.90;;;;;;5017306;28;20241;-68
2022/12/29 09:50:36;;;;;;;1.60;1.33;;;19.30;58.90;;;;;;5032712;28;20210;-67
2022/12/29 09:53:19;;;;;;;1.23;1.00;;;19.30;59.00;;;;;;5008790;28;20737;-68
2022/12/29 09:55:52;;;;;;;1.63;1.30;;;19.30;59.00;;;;;;5026680;28;20215;-67
2022/12/29 09:58:32;;;;;;;1.85;1.20;;;19.30;59.00;;;;;;5032822;28;20276;-67
2022/12/29 10:01:07;;;;;;;1.15;1.00;;;19.30;59.00;;;;;;5016015;28;20218;-67
2022/12/29 10:03:55;;;;;;;1.42;1.17;;;19.30;59.00;;;;;;5018468;28;20251;-71
2022/12/29 10:06:31;;;;;;;1.00;1.00;;;19.30;59.00;;;;;;5032665;28;20191;-68
2022/12/29 10:09:29;;;;;;;2.72;1.10;;;19.30;59.00;;;;;;5021572;28;20191;-68
2022/12/29 10:12:26;;;;;;;1.70;0.90;;;19.20;59.00;;;;;;5018728;28;20202;-68
2022/12/29 10:15:38;;;;;;;1.35;1.13;;;19.30;59.10;;;;;;5042708;22;20229;-71
2022/12/29 10:18:39;;;;;;;0.93;0.85;;;19.30;59.10;;;;;;5027434;28;20205;-71
2022/12/29 10:21:40;;;;;;;2.38;1.00;;;19.30;59.10;;;;;;5027631;28;20215;-71
2022/12/29 10:24:12;;;;;;;0.98;0.85;;;19.30;59.10;;;;;;5011978;28;20194;-71
2022/12/29 10:26:42;;;;;;;1.85;0.88;;;19.30;59.10;;;;;;4995747;28;20215;-71
2022/12/29 10:29:27;;;;;;;0.90;0.90;;;19.30;59.20;;;;;;5021293;28;20228;-70
2022/12/29 10:32:03;;;;;;;1.92;1.08;;;19.30;59.10;;;;;;5022977;28;20202;-72
2022/12/29 10:34:39;;;;;;;2.13;1.30;;;19.30;59.10;;;;;;5015367;28;20678;-71
2022/12/29 10:37:16;;;;;;;2.70;1.00;;;19.30;59.10;;;;;;4998743;28;20194;-71
2022/12/29 10:39:52;;;;;;;1.33;1.23;;;19.30;59.20;;;;;;5019842;28;20211;-71
2022/12/29 10:42:37;;;;;;;1.88;1.10;;;19.30;59.20;;;;;;5004654;28;20295;-71
2022/12/29 10:45:05;;;;;;;1.35;1.08;;;19.30;59.20;;;;;;5014899;28;20211;-71
2022/12/29 10:47:40;;;;;;;1.02;0.95;;;19.30;59.10;;;;;;5015109;28;20253;-71
2022/12/29 10:50:07;;;;;;;0.95;0.95;;;19.30;59.30;;;;;;5030831;28;20198;-71
2022/12/29 10:52:37;;;;;;;1.10;0.90;;;19.30;59.20;;;;;;5022734;28;20257;-70
2022/12/29 10:55:32;;;;;;;1.55;1.02;;;19.30;59.20;;;;;;5032499;28;20222;-71
2022/12/29 10:58:05;;;;;;;1.85;0.70;;;19.30;59.20;;;;;;5031311;28;20199;-70
2022/12/29 11:00:32;;;;;;;1.42;1.00;;;19.30;59.20;;;;;;5014631;28;20261;-71
2022/12/29 11:03:21;;;;;;;1.23;0.95;;;19.30;59.20;;;;;;5014621;28;20196;-71
2022/12/29 11:06:11;;;;;;;1.77;0.90;;;19.30;59.20;;;;;;5020353;28;20303;-71
2022/12/29 11:08:50;;;;;;;1.05;0.95;;;19.30;59.30;;;;;;5006786;28;20194;-72
2022/12/29 11:11:31;;;;;;;1.25;1.15;;;19.30;59.30;;;;;;5006549;28;20192;-71
2022/12/29 11:14:26;;;;;;;1.27;1.00;;;19.30;59.20;;;;;;5014874;28;20664;-72
2022/12/29 11:17:02;;;;;;;1.60;0.93;;;19.30;59.30;;;;;;5009058;28;20212;-71
2022/12/29 11:19:33;;;;;;;2.13;1.30;;;19.30;59.20;;;;;;5027819;28;20635;-72
2022/12/29 11:22:24;;;;;;;1.58;1.00;;;19.30;59.20;;;;;;5013657;28;20199;-71
2022/12/29 11:24:53;;;;;;;1.67;1.00;;;19.30;59.20;;;;;;5025643;28;20196;-72
2022/12/29 11:27:25;;;;;;;0.88;0.80;;;19.30;59.20;;;;;;4997293;28;20196;-72
2022/12/29 11:29:53;;;;;;;1.20;1.10;;;19.30;59.30;;;;;;5012754;28;20287;-72
2022/12/29 11:32:24;;;;;;;1.90;0.85;;;19.40;59.30;;;;;;5031887;28;20217;-71
2022/12/29 11:34:51;;;;;;;0.90;0.90;;;19.30;59.30;;;;;;5011445;28;20187;-71
2022/12/29 11:37:38;;;;;;;1.17;1.02;;;19.30;59.20;;;;;;5010720;28;20258;-70
2022/12/29 11:40:17;;;;;;;1.88;1.13;;;19.30;59.20;;;;;;5009344;28;20229;-70
2022/12/29 11:43:23;;;;;;;0.98;0.85;;;19.30;59.20;;;;;;5023168;28;20187;-69
2022/12/29 11:45:52;;;;;;;2.60;1.20;;;19.30;59.30;;;;;;5013840;28;20229;-70
2022/12/29 11:48:20;;;;;;;1.90;1.08;;;19.30;59.30;;;;;;5009028;28;20180;-71
2022/12/29 11:50:59;;;;;;;0.85;0.70;;;19.30;59.20;;;;;;4988959;28;20219;-71
2022/12/29 11:53:39;;;;;;;0.98;0.90;;;19.30;59.30;;;;;;4999295;28;20229;-71
2022/12/29 11:56:15;;;;;;;1.00;0.90;;;19.30;59.30;;;;;;5015219;28;20215;-70
2022/12/29 11:58:41;;;;;;;1.52;0.95;;;19.30;59.20;;;;;;5006104;28;20250;-70
2022/12/29 12:01:17;;;;;;;0.85;0.80;;;19.30;59.30;;;;;;5014279;28;20233;-70
2022/12/29 12:04:01;;;;;;;1.67;1.00;;;19.30;59.30;;;;;;5006451;28;20184;-71
2022/12/29 12:06:32;;;;;;;1.20;1.10;;;19.30;59.30;;;;;;4982823;28;20204;-71
2022/12/29 12:09:23;;;;;;;1.30;0.82;;;19.30;59.30;;;;;;5016965;28;20218;-70
2022/12/29 12:11:54;;;;;;;0.80;0.80;;;19.30;59.30;;;;;;5017616;28;20195;-70
2022/12/29 12:14:50;;;;;;;0.82;0.80;;;19.40;59.30;;;;;;5009175;28;20188;-70
2022/12/29 12:17:37;;;;;;;1.48;1.20;;;19.30;59.90;;;;;;5009286;28;20192;-70
2022/12/29 12:20:54;;;;;;;0.93;0.85;;;19.30;59.30;;;;;;5013765;28;20199;-70
2022/12/29 12:23:36;;;;;;;1.23;1.00;;;19.30;59.30;;;;;;5011151;28;20196;-70
2022/12/29 12:26:13;;;;;;;0.90;0.90;;;19.30;59.40;;;;;;4993914;28;20214;-70
2022/12/29 12:28:59;;;;;;;0.70;0.70;;;19.30;59.30;;;;;;5005262;28;20190;-70
2022/12/29 12:31:41;;;;;;;2.05;0.80;;;19.30;59.30;;;;;;5032377;28;20197;-70
2022/12/29 12:34:18;;;;;;;1.40;1.15;;;19.30;59.30;;;;;;5022108;28;20270;-71
2022/12/29 12:37:10;;;;;;;1.50;0.90;;;19.30;59.30;;;;;;5014636;28;20214;-71
2022/12/29 12:40:07;;;;;;;0.95;0.80;;;19.30;59.30;;;;;;5016274;28;20199;-71
2022/12/29 12:43:20;;;;;;;1.73;1.10;;;19.40;59.40;;;;;;5031947;28;20191;-71
2022/12/29 12:46:33;;;;;;;0.85;0.85;;;19.30;59.30;;;;;;5027002;28;20211;-71
2022/12/29 12:49:26;;;;;;;0.90;0.90;;;19.30;59.30;;;;;;4916766;29;20366;-71
2022/12/29 12:52:26;;;;;;;1.02;0.90;;;19.30;59.40;;;;;;5003426;28;20200;-71
2022/12/29 12:55:21;;;;;;;1.63;1.08;;;19.30;59.40;;;;;;5026506;28;20187;-72
2022/12/29 12:58:19;;;;;;;1.05;1.02;;;19.30;59.40;;;;;;5016305;28;20196;-71
2022/12/29 13:00:50;;;;;;;1.52;1.10;;;19.30;59.40;;;;;;5013354;28;20215;-71
2022/12/29 13:03:35;;;;;;;1.13;0.90;;;19.30;59.40;;;;;;5005119;28;20281;-72
2022/12/29 13:06:51;;;;;;;0.90;0.90;;;19.30;59.40;;;;;;5014886;28;20212;-72
2022/12/29 13:10:02;;;;;;;1.67;1.27;;;19.30;59.40;;;;;;5012628;28;20189;-71
2022/12/29 13:12:55;;;;;;;3.38;1.05;;;19.30;59.40;;;;;;5024914;28;20192;-71
2022/12/29 13:15:45;;;;;;;1.13;1.02;;;19.30;59.40;;;;;;5004665;28;20269;-70
2022/12/29 13:19:05;;;;;;;2.00;1.05;;;19.30;59.50;;;;;;5004219;28;20225;-71
2022/12/29 13:22:09;;;;;;;1.13;1.02;;;19.30;59.50;;;;;;4997239;28;20228;-71
2022/12/29 13:25:01;;;;;;;0.80;0.80;;;19.30;59.50;;;;;;5011996;28;20231;-70
2022/12/29 13:27:33;;;;;;;2.72;0.95;;;19.30;59.50;;;;;;5005055;28;20203;-71
2022/12/29 13:30:14;;;;;;;2.00;0.90;;;19.30;59.50;;;;;;5023381;28;20191;-70
2022/12/29 13:33:01;;;;;;;1.40;1.17;;;19.30;59.60;;;;;;5015160;28;20206;-70
2022/12/29 13:35:53;;;;;;;1.65;1.00;;;19.30;59.50;;;;;;5008498;28;20219;-71
2022/12/29 13:38:39;;;;;;;0.98;0.98;;;19.30;59.70;;;;;;5024804;28;20195;-70
2022/12/29 13:41:16;;;;;;;1.23;1.13;;;19.30;59.70;;;;;;5024980;28;20218;-71
2022/12/29 13:43:46;;;;;;;1.33;1.00;;;19.30;59.70;;;;;;5016663;28;20601;-71
2022/12/29 13:46:26;;;;;;;1.65;1.00;;;19.40;59.70;;;;;;5000244;28;20290;-71
2022/12/29 13:49:03;;;;;;;0.95;0.93;;;19.30;59.70;;;;;;5016016;28;20183;-71
2022/12/29 13:51:30;;;;;;;1.48;1.10;;;19.40;59.70;;;;;;4999919;28;20194;-74
2022/12/29 13:54:35;;;;;;;1.30;1.20;;;19.30;59.70;;;;;;5033725;28;20192;-70
2022/12/29 13:57:34;;;;;;;1.50;1.40;;;19.30;59.70;;;;;;5027341;28;20194;-71
2022/12/29 14:00:19;;;;;;;1.20;1.08;;;19.30;59.70;;;;;;5018591;28;20201;-70
2022/12/29 14:02:45;;;;;;;1.88;1.15;;;19.30;59.70;;;;;;5024268;28;20199;-70